sensor_id;sensor_type;location;lat;lon;timestamp;temperature;humidity
42339;DHT22;27993;45.392;10.918;2023-03-17T00:02:23;7.40;99.90
42339;DHT22;27993;45.392;10.918;2023-03-17T00:04:53;7.20;99.90
42339;DHT22;27993;45.392;10.918;2023-03-17T00:07:24;7.20;99.90
42339;DHT22;27993;45.392;10.918;2023-03-17T00:09:54;7.20;99.90
42339;DHT22;27993;45.392;10.918;2023-03-17T00:12:25;7.10;99.90
42339;DHT22;27993;45.392;10.918;2023-03-17T00:14:56;7.00;99.90
42339;DHT22;27993;45.392;10.918;2023-03-17T00:17:27;7.10;99.90
42339;DHT22;27993;45.392;10.918;2023-03-17T00:19:58;7.10;99.90
42339;DHT22;27993;45.392;10.918;2023-03-17T00:22:28;7.10;99.90
42339;DHT22;27993;45.392;10.918;2023-03-17T00:24:59;7.20;99.90
42339;DHT22;27993;45.392;10.918;2023-03-17T00:27:30;7.20;99.90
42339;DHT22;27993;45.392;10.918;2023-03-17T00:30:00;7.10;99.90
42339;DHT22;27993;45.392;10.918;2023-03-17T00:32:32;6.90;99.90
42339;DHT22;27993;45.392;10.918;2023-03-17T00:35:02;6.70;99.90
42339;DHT22;27993;45.392;10.918;2023-03-17T00:37:35;6.70;99.90
42339;DHT22;27993;45.392;10.918;2023-03-17T00:40:13;6.50;99.90
42339;DHT22;27993;45.392;10.918;2023-03-17T00:42:44;6.50;99.90
42339;DHT22;27993;45.392;10.918;2023-03-17T00:45:15;6.40;99.90
42339;DHT22;27993;45.392;10.918;2023-03-17T00:47:47;6.60;99.90
42339;DHT22;27993;45.392;10.918;2023-03-17T00:50:19;6.70;99.90
42339;DHT22;27993;45.392;10.918;2023-03-17T00:52:53;6.60;99.90
42339;DHT22;27993;45.392;10.918;2023-03-17T00:55:24;6.30;99.90
42339;DHT22;27993;45.392;10.918;2023-03-17T00:57:56;6.20;99.90
42339;DHT22;27993;45.392;10.918;2023-03-17T01:00:28;6.10;99.90
42339;DHT22;27993;45.392;10.918;2023-03-17T01:02:58;6.00;99.90
42339;DHT22;27993;45.392;10.918;2023-03-17T01:05:29;6.00;99.90
42339;DHT22;27993;45.392;10.918;2023-03-17T01:08:00;6.00;99.90
42339;DHT22;27993;45.392;10.918;2023-03-17T01:10:30;6.20;99.90
42339;DHT22;27993;45.392;10.918;2023-03-17T01:13:02;6.30;99.90
42339;DHT22;27993;45.392;10.918;2023-03-17T01:15:33;6.30;99.90
42339;DHT22;27993;45.392;10.918;2023-03-17T01:18:04;6.30;99.90
42339;DHT22;27993;45.392;10.918;2023-03-17T01:20:35;6.50;99.90
42339;DHT22;27993;45.392;10.918;2023-03-17T01:23:06;6.50;99.90
42339;DHT22;27993;45.392;10.918;2023-03-17T01:25:38;6.60;99.90
42339;DHT22;27993;45.392;10.918;2023-03-17T01:28:12;6.30;99.90
42339;DHT22;27993;45.392;10.918;2023-03-17T01:30:43;6.10;99.90
42339;DHT22;27993;45.392;10.918;2023-03-17T01:33:14;6.30;99.90
42339;DHT22;27993;45.392;10.918;2023-03-17T01:35:45;6.40;99.90
42339;DHT22;27993;45.392;10.918;2023-03-17T01:38:15;6.50;99.90
42339;DHT22;27993;45.392;10.918;2023-03-17T01:40:49;6.60;99.90
42339;DHT22;27993;45.392;10.918;2023-03-17T01:43:26;6.60;99.90
42339;DHT22;27993;45.392;10.918;2023-03-17T01:46:18;6.60;99.90
42339;DHT22;27993;45.392;10.918;2023-03-17T01:49:29;6.70;99.90
42339;DHT22;27993;45.392;10.918;2023-03-17T01:52:17;6.70;99.90
42339;DHT22;27993;45.392;10.918;2023-03-17T01:54:55;6.70;99.90
42339;DHT22;27993;45.392;10.918;2023-03-17T01:57:31;6.70;99.90
42339;DHT22;27993;45.392;10.918;2023-03-17T02:00:09;6.40;99.90
42339;DHT22;27993;45.392;10.918;2023-03-17T02:02:42;6.10;99.90
42339;DHT22;27993;45.392;10.918;2023-03-17T02:05:15;6.10;99.90
42339;DHT22;27993;45.392;10.918;2023-03-17T02:07:47;6.20;99.90
42339;DHT22;27993;45.392;10.918;2023-03-17T02:10:19;6.20;99.90
42339;DHT22;27993;45.392;10.918;2023-03-17T02:12:54;6.40;99.90
42339;DHT22;27993;45.392;10.918;2023-03-17T02:15:36;6.40;99.90
42339;DHT22;27993;45.392;10.918;2023-03-17T02:18:09;6.40;99.90
42339;DHT22;27993;45.392;10.918;2023-03-17T02:23:20;6.50;99.90
42339;DHT22;27993;45.392;10.918;2023-03-17T02:25:54;6.50;99.90
42339;DHT22;27993;45.392;10.918;2023-03-17T02:28:29;6.50;99.90
42339;DHT22;27993;45.392;10.918;2023-03-17T02:31:00;6.50;99.90
42339;DHT22;27993;45.392;10.918;2023-03-17T02:33:30;6.50;99.90
42339;DHT22;27993;45.392;10.918;2023-03-17T02:36:01;6.40;99.90
42339;DHT22;27993;45.392;10.918;2023-03-17T02:38:32;6.40;99.90
42339;DHT22;27993;45.392;10.918;2023-03-17T02:41:03;6.50;99.90
42339;DHT22;27993;45.392;10.918;2023-03-17T02:43:33;6.40;99.90
42339;DHT22;27993;45.392;10.918;2023-03-17T02:46:04;6.50;99.90
42339;DHT22;27993;45.392;10.918;2023-03-17T02:48:35;6.50;99.90
42339;DHT22;27993;45.392;10.918;2023-03-17T02:51:06;6.40;99.90
42339;DHT22;27993;45.392;10.918;2023-03-17T02:53:37;6.30;99.90
42339;DHT22;27993;45.392;10.918;2023-03-17T02:56:08;6.40;99.90
42339;DHT22;27993;45.392;10.918;2023-03-17T02:58:39;6.40;99.90
42339;DHT22;27993;45.392;10.918;2023-03-17T03:01:10;6.40;99.90
42339;DHT22;27993;45.392;10.918;2023-03-17T03:03:41;6.40;99.90
42339;DHT22;27993;45.392;10.918;2023-03-17T03:06:11;6.30;99.90
42339;DHT22;27993;45.392;10.918;2023-03-17T03:08:42;6.20;99.90
42339;DHT22;27993;45.392;10.918;2023-03-17T03:11:13;6.20;99.90
42339;DHT22;27993;45.392;10.918;2023-03-17T03:13:43;6.20;99.90
42339;DHT22;27993;45.392;10.918;2023-03-17T03:16:14;6.10;99.90
42339;DHT22;27993;45.392;10.918;2023-03-17T03:18:45;5.90;99.90
42339;DHT22;27993;45.392;10.918;2023-03-17T03:21:16;6.10;99.90
42339;DHT22;27993;45.392;10.918;2023-03-17T03:23:47;6.10;99.90
42339;DHT22;27993;45.392;10.918;2023-03-17T03:26:17;6.10;99.90
42339;DHT22;27993;45.392;10.918;2023-03-17T03:28:48;6.10;99.90
42339;DHT22;27993;45.392;10.918;2023-03-17T03:31:19;6.20;99.90
42339;DHT22;27993;45.392;10.918;2023-03-17T03:33:50;6.20;99.90
42339;DHT22;27993;45.392;10.918;2023-03-17T03:36:21;6.10;99.90
42339;DHT22;27993;45.392;10.918;2023-03-17T03:38:51;6.20;99.90
42339;DHT22;27993;45.392;10.918;2023-03-17T03:41:22;6.30;99.90
42339;DHT22;27993;45.392;10.918;2023-03-17T03:43:52;6.20;99.90
42339;DHT22;27993;45.392;10.918;2023-03-17T03:46:23;6.10;99.90
42339;DHT22;27993;45.392;10.918;2023-03-17T03:48:54;6.00;99.90
42339;DHT22;27993;45.392;10.918;2023-03-17T03:51:28;6.10;99.90
42339;DHT22;27993;45.392;10.918;2023-03-17T03:54:06;6.10;99.90
42339;DHT22;27993;45.392;10.918;2023-03-17T03:56:48;6.10;99.90
42339;DHT22;27993;45.392;10.918;2023-03-17T03:59:27;6.00;99.90
42339;DHT22;27993;45.392;10.918;2023-03-17T04:01:59;6.10;99.90
42339;DHT22;27993;45.392;10.918;2023-03-17T04:04:30;6.00;99.90
42339;DHT22;27993;45.392;10.918;2023-03-17T04:07:00;6.00;99.90
42339;DHT22;27993;45.392;10.918;2023-03-17T04:09:31;6.00;99.90
42339;DHT22;27993;45.392;10.918;2023-03-17T04:12:02;6.00;99.90
42339;DHT22;27993;45.392;10.918;2023-03-17T04:14:33;5.90;99.90
42339;DHT22;27993;45.392;10.918;2023-03-17T04:17:03;6.00;99.90
42339;DHT22;27993;45.392;10.918;2023-03-17T04:19:34;6.10;99.90
42339;DHT22;27993;45.392;10.918;2023-03-17T04:22:06;6.00;99.90
42339;DHT22;27993;45.392;10.918;2023-03-17T04:24:38;6.00;99.90
42339;DHT22;27993;45.392;10.918;2023-03-17T04:27:09;5.90;99.90
42339;DHT22;27993;45.392;10.918;2023-03-17T04:29:40;6.00;99.90
42339;DHT22;27993;45.392;10.918;2023-03-17T04:32:12;6.00;99.90
42339;DHT22;27993;45.392;10.918;2023-03-17T04:34:44;6.00;99.90
42339;DHT22;27993;45.392;10.918;2023-03-17T04:37:14;6.00;99.90
42339;DHT22;27993;45.392;10.918;2023-03-17T04:39:45;6.00;99.90
42339;DHT22;27993;45.392;10.918;2023-03-17T04:42:16;6.00;99.90
42339;DHT22;27993;45.392;10.918;2023-03-17T04:44:47;6.00;99.90
42339;DHT22;27993;45.392;10.918;2023-03-17T04:47:18;6.00;99.90
42339;DHT22;27993;45.392;10.918;2023-03-17T04:49:48;5.90;99.90
42339;DHT22;27993;45.392;10.918;2023-03-17T04:52:19;5.90;99.90
42339;DHT22;27993;45.392;10.918;2023-03-17T04:54:49;5.90;99.90
42339;DHT22;27993;45.392;10.918;2023-03-17T04:57:20;5.90;99.90
42339;DHT22;27993;45.392;10.918;2023-03-17T04:59:51;5.90;99.90
42339;DHT22;27993;45.392;10.918;2023-03-17T05:02:22;5.70;99.90
42339;DHT22;27993;45.392;10.918;2023-03-17T05:04:53;5.70;99.90
42339;DHT22;27993;45.392;10.918;2023-03-17T05:07:23;5.80;99.90
42339;DHT22;27993;45.392;10.918;2023-03-17T05:09:54;5.80;99.90
42339;DHT22;27993;45.392;10.918;2023-03-17T05:12:24;5.80;99.90
42339;DHT22;27993;45.392;10.918;2023-03-17T05:14:55;5.70;99.90
42339;DHT22;27993;45.392;10.918;2023-03-17T05:17:25;5.70;99.90
42339;DHT22;27993;45.392;10.918;2023-03-17T05:19:56;5.80;99.90
42339;DHT22;27993;45.392;10.918;2023-03-17T05:22:27;5.70;99.90
42339;DHT22;27993;45.392;10.918;2023-03-17T05:24:57;5.70;99.90
42339;DHT22;27993;45.392;10.918;2023-03-17T05:27:28;5.70;99.90
42339;DHT22;27993;45.392;10.918;2023-03-17T05:29:59;5.80;99.90
42339;DHT22;27993;45.392;10.918;2023-03-17T05:32:30;5.80;99.90
42339;DHT22;27993;45.392;10.918;2023-03-17T05:35:01;5.70;99.90
42339;DHT22;27993;45.392;10.918;2023-03-17T05:37:32;5.80;99.90
42339;DHT22;27993;45.392;10.918;2023-03-17T05:40:03;5.70;99.90
42339;DHT22;27993;45.392;10.918;2023-03-17T05:42:34;5.80;99.90
42339;DHT22;27993;45.392;10.918;2023-03-17T05:45:05;5.80;99.90
42339;DHT22;27993;45.392;10.918;2023-03-17T05:47:36;5.80;99.90
42339;DHT22;27993;45.392;10.918;2023-03-17T05:50:08;5.90;99.90
42339;DHT22;27993;45.392;10.918;2023-03-17T05:52:39;5.90;99.90
42339;DHT22;27993;45.392;10.918;2023-03-17T05:55:10;6.10;99.90
42339;DHT22;27993;45.392;10.918;2023-03-17T05:57:40;6.40;99.90
42339;DHT22;27993;45.392;10.918;2023-03-17T06:00:12;6.80;99.90
42339;DHT22;27993;45.392;10.918;2023-03-17T06:02:45;7.10;99.90
42339;DHT22;27993;45.392;10.918;2023-03-17T06:05:16;7.30;99.90
42339;DHT22;27993;45.392;10.918;2023-03-17T06:07:47;7.50;99.90
42339;DHT22;27993;45.392;10.918;2023-03-17T06:10:17;7.80;99.90
42339;DHT22;27993;45.392;10.918;2023-03-17T06:12:48;8.10;99.90
42339;DHT22;27993;45.392;10.918;2023-03-17T06:15:19;8.40;99.90
42339;DHT22;27993;45.392;10.918;2023-03-17T06:17:50;8.70;99.90
42339;DHT22;27993;45.392;10.918;2023-03-17T06:20:21;8.90;99.90
42339;DHT22;27993;45.392;10.918;2023-03-17T06:22:51;9.00;99.90
42339;DHT22;27993;45.392;10.918;2023-03-17T06:25:22;9.20;99.90
42339;DHT22;27993;45.392;10.918;2023-03-17T06:27:52;9.40;99.90
42339;DHT22;27993;45.392;10.918;2023-03-17T06:30:25;9.60;99.90
42339;DHT22;27993;45.392;10.918;2023-03-17T06:32:56;9.60;99.90
42339;DHT22;27993;45.392;10.918;2023-03-17T06:35:27;9.90;99.90
42339;DHT22;27993;45.392;10.918;2023-03-17T06:37:58;10.10;99.90
42339;DHT22;27993;45.392;10.918;2023-03-17T06:40:29;10.00;99.90
42339;DHT22;27993;45.392;10.918;2023-03-17T06:43:00;10.10;99.80
42339;DHT22;27993;45.392;10.918;2023-03-17T06:45:31;10.00;99.90
42339;DHT22;27993;45.392;10.918;2023-03-17T06:48:04;10.00;99.90
42339;DHT22;27993;45.392;10.918;2023-03-17T06:50:36;10.10;99.90
42339;DHT22;27993;45.392;10.918;2023-03-17T06:53:06;10.30;99.90
42339;DHT22;27993;45.392;10.918;2023-03-17T06:55:37;10.30;99.90
42339;DHT22;27993;45.392;10.918;2023-03-17T06:58:08;10.30;99.90
42339;DHT22;27993;45.392;10.918;2023-03-17T07:00:40;10.80;99.90
42339;DHT22;27993;45.392;10.918;2023-03-17T07:03:10;11.20;99.90
42339;DHT22;27993;45.392;10.918;2023-03-17T07:05:41;11.20;99.90
42339;DHT22;27993;45.392;10.918;2023-03-17T07:08:12;11.30;99.90
42339;DHT22;27993;45.392;10.918;2023-03-17T07:10:43;11.60;99.80
42339;DHT22;27993;45.392;10.918;2023-03-17T07:13:15;11.90;99.50
42339;DHT22;27993;45.392;10.918;2023-03-17T07:15:45;12.20;98.20
42339;DHT22;27993;45.392;10.918;2023-03-17T07:18:16;12.30;98.20
42339;DHT22;27993;45.392;10.918;2023-03-17T07:20:46;12.60;98.40
42339;DHT22;27993;45.392;10.918;2023-03-17T07:23:21;12.50;98.20
42339;DHT22;27993;45.392;10.918;2023-03-17T07:25:52;12.90;98.10
42339;DHT22;27993;45.392;10.918;2023-03-17T07:28:23;13.40;98.20
42339;DHT22;27993;45.392;10.918;2023-03-17T07:30:53;14.00;97.50
42339;DHT22;27993;45.392;10.918;2023-03-17T07:33:27;14.20;95.70
42339;DHT22;27993;45.392;10.918;2023-03-17T07:35:58;14.80;97.00
42339;DHT22;27993;45.392;10.918;2023-03-17T07:38:28;15.20;95.10
42339;DHT22;27993;45.392;10.918;2023-03-17T07:40:59;15.30;94.60
42339;DHT22;27993;45.392;10.918;2023-03-17T07:43:30;15.60;94.10
42339;DHT22;27993;45.392;10.918;2023-03-17T07:46:01;15.70;93.50
42339;DHT22;27993;45.392;10.918;2023-03-17T07:48:32;16.00;92.50
42339;DHT22;27993;45.392;10.918;2023-03-17T07:51:05;16.30;93.60
42339;DHT22;27993;45.392;10.918;2023-03-17T07:53:36;16.60;91.50
42339;DHT22;27993;45.392;10.918;2023-03-17T07:56:07;17.50;91.20
42339;DHT22;27993;45.392;10.918;2023-03-17T07:58:38;17.60;89.60
42339;DHT22;27993;45.392;10.918;2023-03-17T08:01:09;17.70;86.20
42339;DHT22;27993;45.392;10.918;2023-03-17T08:03:40;17.40;86.40
42339;DHT22;27993;45.392;10.918;2023-03-17T08:06:10;17.80;84.50
42339;DHT22;27993;45.392;10.918;2023-03-17T08:08:41;18.20;83.40
42339;DHT22;27993;45.392;10.918;2023-03-17T08:11:12;18.40;77.50
42339;DHT22;27993;45.392;10.918;2023-03-17T08:13:43;18.80;75.40
42339;DHT22;27993;45.392;10.918;2023-03-17T08:16:15;18.40;74.40
42339;DHT22;27993;45.392;10.918;2023-03-17T08:18:46;18.40;72.30
42339;DHT22;27993;45.392;10.918;2023-03-17T08:21:17;18.40;78.00
42339;DHT22;27993;45.392;10.918;2023-03-17T08:23:48;19.20;71.10
42339;DHT22;27993;45.392;10.918;2023-03-17T08:26:18;19.80;67.70
42339;DHT22;27993;45.392;10.918;2023-03-17T08:28:50;19.80;67.70
42339;DHT22;27993;45.392;10.918;2023-03-17T08:31:21;19.60;67.00
42339;DHT22;27993;45.392;10.918;2023-03-17T08:33:53;19.40;66.20
42339;DHT22;27993;45.392;10.918;2023-03-17T08:36:26;18.90;68.00
42339;DHT22;27993;45.392;10.918;2023-03-17T08:38:57;18.70;66.70
42339;DHT22;27993;45.392;10.918;2023-03-17T08:41:28;19.10;66.60
42339;DHT22;27993;45.392;10.918;2023-03-17T08:43:58;18.80;66.30
42339;DHT22;27993;45.392;10.918;2023-03-17T08:46:30;18.90;66.50
42339;DHT22;27993;45.392;10.918;2023-03-17T08:49:02;18.60;66.80
42339;DHT22;27993;45.392;10.918;2023-03-17T08:51:35;19.00;68.70
42339;DHT22;27993;45.392;10.918;2023-03-17T08:54:06;19.10;68.50
42339;DHT22;27993;45.392;10.918;2023-03-17T08:56:39;19.40;68.20
42339;DHT22;27993;45.392;10.918;2023-03-17T08:59:09;19.50;66.80
42339;DHT22;27993;45.392;10.918;2023-03-17T09:01:40;20.00;65.90
42339;DHT22;27993;45.392;10.918;2023-03-17T09:04:11;19.80;64.90
42339;DHT22;27993;45.392;10.918;2023-03-17T09:06:41;19.30;66.70
42339;DHT22;27993;45.392;10.918;2023-03-17T09:09:12;19.90;66.40
42339;DHT22;27993;45.392;10.918;2023-03-17T09:11:43;20.50;66.00
42339;DHT22;27993;45.392;10.918;2023-03-17T09:14:13;20.70;66.10
42339;DHT22;27993;45.392;10.918;2023-03-17T09:16:44;20.50;66.20
42339;DHT22;27993;45.392;10.918;2023-03-17T09:19:18;20.50;64.90
42339;DHT22;27993;45.392;10.918;2023-03-17T09:21:49;20.80;65.90
42339;DHT22;27993;45.392;10.918;2023-03-17T09:24:20;21.30;63.60
42339;DHT22;27993;45.392;10.918;2023-03-17T09:26:50;21.30;63.20
42339;DHT22;27993;45.392;10.918;2023-03-17T09:29:21;20.80;64.90
42339;DHT22;27993;45.392;10.918;2023-03-17T09:31:53;20.30;62.80
42339;DHT22;27993;45.392;10.918;2023-03-17T09:34:25;20.30;64.00
42339;DHT22;27993;45.392;10.918;2023-03-17T09:36:56;20.60;65.30
42339;DHT22;27993;45.392;10.918;2023-03-17T09:39:29;21.90;65.60
42339;DHT22;27993;45.392;10.918;2023-03-17T09:45:41;23.30;63.40
42339;DHT22;27993;45.392;10.918;2023-03-17T09:51:16;23.80;62.10
42339;DHT22;27993;45.392;10.918;2023-03-17T09:56:35;23.40;60.50
42339;DHT22;27993;45.392;10.918;2023-03-17T09:59:41;22.60;61.20
42339;DHT22;27993;45.392;10.918;2023-03-17T10:02:29;21.90;59.70
42339;DHT22;27993;45.392;10.918;2023-03-17T10:16:08;23.20;59.70
42339;DHT22;27993;45.392;10.918;2023-03-17T10:18:54;23.10;57.90
42339;DHT22;27993;45.392;10.918;2023-03-17T10:21:28;23.30;59.00
42339;DHT22;27993;45.392;10.918;2023-03-17T10:24:02;23.00;56.80
42339;DHT22;27993;45.392;10.918;2023-03-17T10:26:38;22.70;59.10
42339;DHT22;27993;45.392;10.918;2023-03-17T10:29:15;23.00;58.10
42339;DHT22;27993;45.392;10.918;2023-03-17T10:31:47;22.40;56.80
42339;DHT22;27993;45.392;10.918;2023-03-17T10:34:31;22.30;58.00
42339;DHT22;27993;45.392;10.918;2023-03-17T10:37:19;22.10;58.50
42339;DHT22;27993;45.392;10.918;2023-03-17T10:39:55;22.50;58.10
42339;DHT22;27993;45.392;10.918;2023-03-17T10:42:30;23.50;56.30
42339;DHT22;27993;45.392;10.918;2023-03-17T10:45:26;23.40;57.20
42339;DHT22;27993;45.392;10.918;2023-03-17T10:47:59;23.20;58.00
42339;DHT22;27993;45.392;10.918;2023-03-17T10:50:34;23.40;59.10
42339;DHT22;27993;45.392;10.918;2023-03-17T10:53:08;23.30;56.90
42339;DHT22;27993;45.392;10.918;2023-03-17T10:55:51;22.50;57.40
42339;DHT22;27993;45.392;10.918;2023-03-17T10:58:47;23.40;58.20
42339;DHT22;27993;45.392;10.918;2023-03-17T11:01:34;24.00;55.90
42339;DHT22;27993;45.392;10.918;2023-03-17T11:04:36;23.80;56.50
42339;DHT22;27993;45.392;10.918;2023-03-17T11:07:15;23.40;57.10
42339;DHT22;27993;45.392;10.918;2023-03-17T11:09:50;23.20;57.30
42339;DHT22;27993;45.392;10.918;2023-03-17T11:12:29;22.00;57.30
42339;DHT22;27993;45.392;10.918;2023-03-17T11:15:10;20.30;57.10
42339;DHT22;27993;45.392;10.918;2023-03-17T11:17:58;19.40;57.70
42339;DHT22;27993;45.392;10.918;2023-03-17T11:32:40;18.60;62.50
42339;DHT22;27993;45.392;10.918;2023-03-17T11:35:32;18.30;65.20
42339;DHT22;27993;45.392;10.918;2023-03-17T11:38:24;18.30;64.30
42339;DHT22;27993;45.392;10.918;2023-03-17T11:41:32;18.30;63.30
42339;DHT22;27993;45.392;10.918;2023-03-17T11:49:38;17.90;62.50
42339;DHT22;27993;45.392;10.918;2023-03-17T11:52:35;18.00;63.90
42339;DHT22;27993;45.392;10.918;2023-03-17T11:57:54;18.90;61.40
42339;DHT22;27993;45.392;10.918;2023-03-17T12:00:35;18.80;60.50
42339;DHT22;27993;45.392;10.918;2023-03-17T12:03:18;19.00;61.90
42339;DHT22;27993;45.392;10.918;2023-03-17T12:05:55;18.90;62.60
42339;DHT22;27993;45.392;10.918;2023-03-17T12:08:57;18.70;61.70
42339;DHT22;27993;45.392;10.918;2023-03-17T12:11:31;18.80;63.60
42339;DHT22;27993;45.392;10.918;2023-03-17T12:14:50;18.80;61.20
42339;DHT22;27993;45.392;10.918;2023-03-17T12:17:10;18.60;62.90
42339;DHT22;27993;45.392;10.918;2023-03-17T12:20:19;18.60;62.30
42339;DHT22;27993;45.392;10.918;2023-03-17T12:22:58;18.10;63.70
42339;DHT22;27993;45.392;10.918;2023-03-17T12:25:54;18.30;63.60
42339;DHT22;27993;45.392;10.918;2023-03-17T12:28:33;18.10;63.50
42339;DHT22;27993;45.392;10.918;2023-03-17T12:31:11;17.50;61.90
42339;DHT22;27993;45.392;10.918;2023-03-17T12:34:08;17.50;65.20
42339;DHT22;27993;45.392;10.918;2023-03-17T12:36:39;17.30;64.60
42339;DHT22;27993;45.392;10.918;2023-03-17T12:45:27;16.60;66.40
42339;DHT22;27993;45.392;10.918;2023-03-17T12:48:27;17.20;67.10
42339;DHT22;27993;45.392;10.918;2023-03-17T12:53:53;17.50;63.60
42339;DHT22;27993;45.392;10.918;2023-03-17T12:56:27;17.50;65.30
42339;DHT22;27993;45.392;10.918;2023-03-17T12:59:02;17.60;65.60
42339;DHT22;27993;45.392;10.918;2023-03-17T13:01:41;17.40;66.80
42339;DHT22;27993;45.392;10.918;2023-03-17T13:04:28;17.50;65.70
42339;DHT22;27993;45.392;10.918;2023-03-17T13:07:07;17.50;65.30
42339;DHT22;27993;45.392;10.918;2023-03-17T13:09:48;17.50;66.30
42339;DHT22;27993;45.392;10.918;2023-03-17T13:23:38;17.10;66.70
42339;DHT22;27993;45.392;10.918;2023-03-17T13:26:17;17.20;66.30
42339;DHT22;27993;45.392;10.918;2023-03-17T13:28:51;17.20;66.30
42339;DHT22;27993;45.392;10.918;2023-03-17T13:31:34;17.10;65.30
42339;DHT22;27993;45.392;10.918;2023-03-17T13:34:12;17.20;65.10
42339;DHT22;27993;45.392;10.918;2023-03-17T13:44:51;16.70;68.30
42339;DHT22;27993;45.392;10.918;2023-03-17T13:47:40;16.60;64.50
42339;DHT22;27993;45.392;10.918;2023-03-17T13:50:20;16.60;65.80
42339;DHT22;27993;45.392;10.918;2023-03-17T13:52:59;16.60;66.60
42339;DHT22;27993;45.392;10.918;2023-03-17T13:55:34;16.50;65.70
42339;DHT22;27993;45.392;10.918;2023-03-17T14:00:38;16.40;65.20
42339;DHT22;27993;45.392;10.918;2023-03-17T14:03:17;16.50;66.50
42339;DHT22;27993;45.392;10.918;2023-03-17T14:05:50;16.30;68.70
42339;DHT22;27993;45.392;10.918;2023-03-17T14:08:37;16.50;66.50
42339;DHT22;27993;45.392;10.918;2023-03-17T14:11:34;16.60;66.30
42339;DHT22;27993;45.392;10.918;2023-03-17T14:17:07;16.60;66.40
42339;DHT22;27993;45.392;10.918;2023-03-17T14:19:40;16.40;65.40
42339;DHT22;27993;45.392;10.918;2023-03-17T14:22:28;16.60;66.50
42339;DHT22;27993;45.392;10.918;2023-03-17T14:25:00;16.60;65.10
42339;DHT22;27993;45.392;10.918;2023-03-17T14:27:32;16.50;64.20
42339;DHT22;27993;45.392;10.918;2023-03-17T14:30:07;16.50;64.10
42339;DHT22;27993;45.392;10.918;2023-03-17T14:32:38;16.20;63.00
42339;DHT22;27993;45.392;10.918;2023-03-17T14:35:12;16.20;64.10
42339;DHT22;27993;45.392;10.918;2023-03-17T14:37:44;16.30;66.40
42339;DHT22;27993;45.392;10.918;2023-03-17T14:40:26;16.30;65.20
42339;DHT22;27993;45.392;10.918;2023-03-17T14:42:57;16.40;65.90
42339;DHT22;27993;45.392;10.918;2023-03-17T14:45:37;16.50;65.20
42339;DHT22;27993;45.392;10.918;2023-03-17T14:48:15;16.50;66.40
42339;DHT22;27993;45.392;10.918;2023-03-17T14:50:55;16.30;66.70
42339;DHT22;27993;45.392;10.918;2023-03-17T14:53:26;16.30;67.10
42339;DHT22;27993;45.392;10.918;2023-03-17T14:55:58;16.30;65.20
42339;DHT22;27993;45.392;10.918;2023-03-17T14:58:41;16.20;66.70
42339;DHT22;27993;45.392;10.918;2023-03-17T15:01:18;15.90;69.20
42339;DHT22;27993;45.392;10.918;2023-03-17T15:03:57;16.00;70.70
42339;DHT22;27993;45.392;10.918;2023-03-17T15:06:28;16.20;67.70
42339;DHT22;27993;45.392;10.918;2023-03-17T15:09:17;16.10;68.20
42339;DHT22;27993;45.392;10.918;2023-03-17T15:11:48;16.00;68.00
42339;DHT22;27993;45.392;10.918;2023-03-17T15:16:54;16.00;67.70
42339;DHT22;27993;45.392;10.918;2023-03-17T15:19:28;16.00;67.30
42339;DHT22;27993;45.392;10.918;2023-03-17T15:22:04;16.10;67.00
42339;DHT22;27993;45.392;10.918;2023-03-17T15:27:51;16.20;67.90
42339;DHT22;27993;45.392;10.918;2023-03-17T15:30:21;16.10;67.80
42339;DHT22;27993;45.392;10.918;2023-03-17T15:33:01;15.90;69.40
42339;DHT22;27993;45.392;10.918;2023-03-17T15:35:32;15.80;69.60
42339;DHT22;27993;45.392;10.918;2023-03-17T15:38:03;15.70;67.40
42339;DHT22;27993;45.392;10.918;2023-03-17T15:40:33;15.60;67.30
42339;DHT22;27993;45.392;10.918;2023-03-17T15:43:04;15.60;68.10
42339;DHT22;27993;45.392;10.918;2023-03-17T15:45:34;15.70;69.40
42339;DHT22;27993;45.392;10.918;2023-03-17T15:48:12;15.70;69.20
42339;DHT22;27993;45.392;10.918;2023-03-17T15:50:46;15.70;69.60
42339;DHT22;27993;45.392;10.918;2023-03-17T15:53:18;15.70;69.90
42339;DHT22;27993;45.392;10.918;2023-03-17T15:55:48;15.60;69.20
42339;DHT22;27993;45.392;10.918;2023-03-17T15:58:19;15.60;69.30
42339;DHT22;27993;45.392;10.918;2023-03-17T16:00:52;15.60;69.60
42339;DHT22;27993;45.392;10.918;2023-03-17T16:03:34;15.60;70.10
42339;DHT22;27993;45.392;10.918;2023-03-17T16:06:15;15.60;70.00
42339;DHT22;27993;45.392;10.918;2023-03-17T16:08:46;15.40;70.50
42339;DHT22;27993;45.392;10.918;2023-03-17T16:11:18;15.50;70.30
42339;DHT22;27993;45.392;10.918;2023-03-17T16:13:49;15.50;70.70
42339;DHT22;27993;45.392;10.918;2023-03-17T16:16:35;15.40;71.90
42339;DHT22;27993;45.392;10.918;2023-03-17T16:19:10;15.40;70.90
42339;DHT22;27993;45.392;10.918;2023-03-17T16:21:46;15.40;70.90
42339;DHT22;27993;45.392;10.918;2023-03-17T16:24:18;15.30;71.10
42339;DHT22;27993;45.392;10.918;2023-03-17T16:26:50;15.30;70.70
42339;DHT22;27993;45.392;10.918;2023-03-17T16:29:20;15.30;71.50
42339;DHT22;27993;45.392;10.918;2023-03-17T16:31:51;15.30;71.40
42339;DHT22;27993;45.392;10.918;2023-03-17T16:34:22;15.30;71.40
42339;DHT22;27993;45.392;10.918;2023-03-17T16:36:53;15.20;72.20
42339;DHT22;27993;45.392;10.918;2023-03-17T16:39:25;15.10;71.90
42339;DHT22;27993;45.392;10.918;2023-03-17T16:41:56;15.10;72.50
42339;DHT22;27993;45.392;10.918;2023-03-17T16:44:28;15.20;72.00
42339;DHT22;27993;45.392;10.918;2023-03-17T16:47:00;15.10;71.80
42339;DHT22;27993;45.392;10.918;2023-03-17T16:49:30;15.20;72.20
42339;DHT22;27993;45.392;10.918;2023-03-17T16:52:01;15.10;72.80
42339;DHT22;27993;45.392;10.918;2023-03-17T16:54:31;15.20;72.60
42339;DHT22;27993;45.392;10.918;2023-03-17T16:57:02;15.10;72.70
42339;DHT22;27993;45.392;10.918;2023-03-17T16:59:33;15.10;72.40
42339;DHT22;27993;45.392;10.918;2023-03-17T17:02:14;15.10;72.40
42339;DHT22;27993;45.392;10.918;2023-03-17T17:04:45;15.00;72.50
42339;DHT22;27993;45.392;10.918;2023-03-17T17:07:15;15.00;72.40
42339;DHT22;27993;45.392;10.918;2023-03-17T17:09:46;14.90;72.40
42339;DHT22;27993;45.392;10.918;2023-03-17T17:12:16;14.80;73.00
42339;DHT22;27993;45.392;10.918;2023-03-17T17:14:47;14.70;73.00
42339;DHT22;27993;45.392;10.918;2023-03-17T17:17:17;14.70;73.20
42339;DHT22;27993;45.392;10.918;2023-03-17T17:19:49;14.70;73.50
42339;DHT22;27993;45.392;10.918;2023-03-17T17:22:19;14.60;74.00
42339;DHT22;27993;45.392;10.918;2023-03-17T17:24:50;14.60;73.70
42339;DHT22;27993;45.392;10.918;2023-03-17T17:27:20;14.60;74.10
42339;DHT22;27993;45.392;10.918;2023-03-17T17:29:51;14.60;74.00